sensor_id;sensor_type;location;lat;lon;timestamp;P1;durP1;ratioP1;P2;durP2;ratioP2
35126;SDS011;21300;52.006;5.798;2023-06-19T00:01:41;9.20;;;7.30;;
35126;SDS011;21300;52.006;5.798;2023-06-19T00:04:07;7.53;;;6.75;;
35126;SDS011;21300;52.006;5.798;2023-06-19T00:06:34;8.48;;;7.03;;
35126;SDS011;21300;52.006;5.798;2023-06-19T00:08:59;9.50;;;7.20;;
35126;SDS011;21300;52.006;5.798;2023-06-19T00:11:25;11.73;;;7.95;;
35126;SDS011;21300;52.006;5.798;2023-06-19T00:13:52;7.80;;;7.00;;
35126;SDS011;21300;52.006;5.798;2023-06-19T00:16:17;9.00;;;7.00;;
35126;SDS011;21300;52.006;5.798;2023-06-19T00:18:44;7.97;;;6.80;;
35126;SDS011;21300;52.006;5.798;2023-06-19T00:21:10;8.38;;;7.47;;
35126;SDS011;21300;52.006;5.798;2023-06-19T00:23:36;9.75;;;5.90;;
35126;SDS011;21300;52.006;5.798;2023-06-19T00:26:01;7.93;;;5.97;;
35126;SDS011;21300;52.006;5.798;2023-06-19T00:28:28;7.30;;;5.85;;
35126;SDS011;21300;52.006;5.798;2023-06-19T00:30:54;8.38;;;6.47;;
35126;SDS011;21300;52.006;5.798;2023-06-19T00:33:19;8.15;;;6.55;;
35126;SDS011;21300;52.006;5.798;2023-06-19T00:35:45;7.55;;;6.18;;
35126;SDS011;21300;52.006;5.798;2023-06-19T00:38:11;8.90;;;6.28;;
35126;SDS011;21300;52.006;5.798;2023-06-19T00:40:37;7.07;;;6.38;;
35126;SDS011;21300;52.006;5.798;2023-06-19T00:43:02;10.57;;;6.30;;
35126;SDS011;21300;52.006;5.798;2023-06-19T00:45:28;8.48;;;6.70;;
35126;SDS011;21300;52.006;5.798;2023-06-19T00:47:55;9.38;;;6.38;;
35126;SDS011;21300;52.006;5.798;2023-06-19T00:50:22;7.10;;;6.40;;
35126;SDS011;21300;52.006;5.798;2023-06-19T00:52:48;8.50;;;6.18;;
35126;SDS011;21300;52.006;5.798;2023-06-19T00:55:14;7.68;;;6.63;;
35126;SDS011;21300;52.006;5.798;2023-06-19T00:57:41;12.95;;;6.45;;
35126;SDS011;21300;52.006;5.798;2023-06-19T01:00:07;10.65;;;6.00;;
35126;SDS011;21300;52.006;5.798;2023-06-19T01:02:34;9.35;;;6.50;;
35126;SDS011;21300;52.006;5.798;2023-06-19T01:05:00;8.50;;;6.30;;
35126;SDS011;21300;52.006;5.798;2023-06-19T01:07:49;7.97;;;5.68;;
35126;SDS011;21300;52.006;5.798;2023-06-19T01:10:43;7.45;;;5.53;;
35126;SDS011;21300;52.006;5.798;2023-06-19T01:15:46;7.15;;;5.80;;
35126;SDS011;21300;52.006;5.798;2023-06-19T01:18:13;7.93;;;5.95;;
35126;SDS011;21300;52.006;5.798;2023-06-19T01:20:40;6.95;;;5.43;;
35126;SDS011;21300;52.006;5.798;2023-06-19T01:23:10;7.20;;;5.40;;
35126;SDS011;21300;52.006;5.798;2023-06-19T01:25:36;6.60;;;4.95;;
35126;SDS011;21300;52.006;5.798;2023-06-19T01:28:06;6.20;;;5.05;;
35126;SDS011;21300;52.006;5.798;2023-06-19T01:30:34;10.00;;;5.25;;
35126;SDS011;21300;52.006;5.798;2023-06-19T01:33:12;6.97;;;5.20;;
35126;SDS011;21300;52.006;5.798;2023-06-19T01:35:43;7.60;;;5.38;;
35126;SDS011;21300;52.006;5.798;2023-06-19T01:38:11;6.65;;;5.68;;
35126;SDS011;21300;52.006;5.798;2023-06-19T01:40:38;6.13;;;4.85;;
35126;SDS011;21300;52.006;5.798;2023-06-19T01:43:05;5.80;;;4.90;;
35126;SDS011;21300;52.006;5.798;2023-06-19T01:45:33;7.03;;;4.72;;
35126;SDS011;21300;52.006;5.798;2023-06-19T01:47:58;5.82;;;4.55;;
35126;SDS011;21300;52.006;5.798;2023-06-19T01:50:24;5.65;;;4.35;;
35126;SDS011;21300;52.006;5.798;2023-06-19T01:52:50;6.57;;;4.47;;
35126;SDS011;21300;52.006;5.798;2023-06-19T01:55:16;9.13;;;5.10;;
35126;SDS011;21300;52.006;5.798;2023-06-19T01:57:42;6.07;;;4.70;;
35126;SDS011;21300;52.006;5.798;2023-06-19T02:00:08;6.95;;;4.57;;
35126;SDS011;21300;52.006;5.798;2023-06-19T02:02:35;5.22;;;4.45;;
35126;SDS011;21300;52.006;5.798;2023-06-19T02:05:02;5.28;;;4.10;;
35126;SDS011;21300;52.006;5.798;2023-06-19T02:07:28;5.45;;;4.60;;
35126;SDS011;21300;52.006;5.798;2023-06-19T02:09:53;4.68;;;3.95;;
35126;SDS011;21300;52.006;5.798;2023-06-19T02:12:19;4.45;;;3.75;;
35126;SDS011;21300;52.006;5.798;2023-06-19T02:14:44;6.38;;;4.18;;
35126;SDS011;21300;52.006;5.798;2023-06-19T02:17:10;5.93;;;4.55;;
35126;SDS011;21300;52.006;5.798;2023-06-19T02:19:35;5.45;;;3.53;;
35126;SDS011;21300;52.006;5.798;2023-06-19T02:22:01;5.68;;;3.50;;
35126;SDS011;21300;52.006;5.798;2023-06-19T02:24:27;7.43;;;4.15;;
35126;SDS011;21300;52.006;5.798;2023-06-19T02:26:52;6.10;;;4.10;;
35126;SDS011;21300;52.006;5.798;2023-06-19T02:29:18;6.65;;;4.07;;
35126;SDS011;21300;52.006;5.798;2023-06-19T02:31:45;5.43;;;3.70;;
35126;SDS011;21300;52.006;5.798;2023-06-19T02:34:10;5.22;;;3.95;;
35126;SDS011;21300;52.006;5.798;2023-06-19T02:36:36;5.40;;;4.00;;
35126;SDS011;21300;52.006;5.798;2023-06-19T02:39:03;6.13;;;3.30;;
35126;SDS011;21300;52.006;5.798;2023-06-19T02:41:30;4.18;;;3.45;;
35126;SDS011;21300;52.006;5.798;2023-06-19T02:43:56;5.70;;;3.70;;
35126;SDS011;21300;52.006;5.798;2023-06-19T02:46:21;7.03;;;3.70;;
35126;SDS011;21300;52.006;5.798;2023-06-19T02:48:47;4.60;;;3.13;;
35126;SDS011;21300;52.006;5.798;2023-06-19T02:51:12;3.78;;;2.55;;
35126;SDS011;21300;52.006;5.798;2023-06-19T02:53:38;5.18;;;3.03;;
35126;SDS011;21300;52.006;5.798;2023-06-19T02:56:04;6.10;;;3.30;;
35126;SDS011;21300;52.006;5.798;2023-06-19T02:58:30;5.07;;;2.85;;
35126;SDS011;21300;52.006;5.798;2023-06-19T03:00:56;4.35;;;2.95;;
35126;SDS011;21300;52.006;5.798;2023-06-19T03:03:21;3.85;;;2.83;;
35126;SDS011;21300;52.006;5.798;2023-06-19T03:05:48;5.50;;;2.55;;
35126;SDS011;21300;52.006;5.798;2023-06-19T03:08:13;6.07;;;2.80;;
35126;SDS011;21300;52.006;5.798;2023-06-19T03:10:39;3.75;;;2.40;;
35126;SDS011;21300;52.006;5.798;2023-06-19T03:13:04;4.75;;;2.95;;
35126;SDS011;21300;52.006;5.798;2023-06-19T03:15:30;4.60;;;3.03;;
35126;SDS011;21300;52.006;5.798;2023-06-19T03:17:55;4.28;;;3.00;;
35126;SDS011;21300;52.006;5.798;2023-06-19T03:20:21;2.83;;;2.50;;
35126;SDS011;21300;52.006;5.798;2023-06-19T03:22:47;3.38;;;2.72;;
35126;SDS011;21300;52.006;5.798;2023-06-19T03:25:12;4.18;;;3.10;;
35126;SDS011;21300;52.006;5.798;2023-06-19T03:27:38;3.22;;;2.55;;
35126;SDS011;21300;52.006;5.798;2023-06-19T03:30:04;3.03;;;2.40;;
35126;SDS011;21300;52.006;5.798;2023-06-19T03:32:34;2.95;;;2.63;;
35126;SDS011;21300;52.006;5.798;2023-06-19T03:35:01;5.22;;;2.65;;
35126;SDS011;21300;52.006;5.798;2023-06-19T03:37:27;3.70;;;2.47;;
35126;SDS011;21300;52.006;5.798;2023-06-19T03:39:53;3.50;;;2.53;;
35126;SDS011;21300;52.006;5.798;2023-06-19T03:42:18;4.95;;;2.50;;
35126;SDS011;21300;52.006;5.798;2023-06-19T03:44:44;4.43;;;2.65;;
35126;SDS011;21300;52.006;5.798;2023-06-19T03:47:09;3.45;;;2.65;;
35126;SDS011;21300;52.006;5.798;2023-06-19T03:49:35;3.78;;;2.53;;
35126;SDS011;21300;52.006;5.798;2023-06-19T03:52:00;4.13;;;3.03;;
35126;SDS011;21300;52.006;5.798;2023-06-19T03:54:27;4.30;;;2.78;;
35126;SDS011;21300;52.006;5.798;2023-06-19T03:56:52;3.33;;;2.53;;
35126;SDS011;21300;52.006;5.798;2023-06-19T03:59:18;2.88;;;2.40;;
35126;SDS011;21300;52.006;5.798;2023-06-19T04:01:43;3.35;;;2.58;;
35126;SDS011;21300;52.006;5.798;2023-06-19T04:04:09;4.70;;;2.70;;
35126;SDS011;21300;52.006;5.798;2023-06-19T04:06:34;4.25;;;2.60;;
35126;SDS011;21300;52.006;5.798;2023-06-19T04:09:00;3.33;;;2.33;;
35126;SDS011;21300;52.006;5.798;2023-06-19T04:11:26;3.42;;;2.90;;
35126;SDS011;21300;52.006;5.798;2023-06-19T04:13:51;3.72;;;3.03;;
35126;SDS011;21300;52.006;5.798;2023-06-19T04:16:17;4.03;;;2.90;;
35126;SDS011;21300;52.006;5.798;2023-06-19T04:18:42;4.07;;;2.67;;
35126;SDS011;21300;52.006;5.798;2023-06-19T04:21:08;4.65;;;2.88;;
35126;SDS011;21300;52.006;5.798;2023-06-19T04:23:34;3.80;;;3.00;;
35126;SDS011;21300;52.006;5.798;2023-06-19T04:25:59;4.50;;;2.95;;
35126;SDS011;21300;52.006;5.798;2023-06-19T04:28:25;4.10;;;2.95;;
35126;SDS011;21300;52.006;5.798;2023-06-19T04:30:51;4.15;;;2.90;;
35126;SDS011;21300;52.006;5.798;2023-06-19T04:33:25;5.03;;;2.97;;
35126;SDS011;21300;52.006;5.798;2023-06-19T04:35:54;4.13;;;3.17;;
35126;SDS011;21300;52.006;5.798;2023-06-19T04:38:20;5.20;;;2.95;;
35126;SDS011;21300;52.006;5.798;2023-06-19T04:40:49;4.10;;;2.92;;
35126;SDS011;21300;52.006;5.798;2023-06-19T04:43:17;4.65;;;3.15;;
35126;SDS011;21300;52.006;5.798;2023-06-19T04:45:43;6.10;;;3.17;;
35126;SDS011;21300;52.006;5.798;2023-06-19T04:48:09;4.50;;;3.08;;
35126;SDS011;21300;52.006;5.798;2023-06-19T04:50:36;4.05;;;2.90;;
35126;SDS011;21300;52.006;5.798;2023-06-19T04:53:02;7.78;;;3.30;;
35126;SDS011;21300;52.006;5.798;2023-06-19T04:55:27;4.88;;;3.90;;
35126;SDS011;21300;52.006;5.798;2023-06-19T04:57:53;5.45;;;3.50;;
35126;SDS011;21300;52.006;5.798;2023-06-19T05:00:20;5.60;;;4.28;;
35126;SDS011;21300;52.006;5.798;2023-06-19T05:02:48;5.50;;;4.03;;
35126;SDS011;21300;52.006;5.798;2023-06-19T05:05:14;5.63;;;4.05;;
35126;SDS011;21300;52.006;5.798;2023-06-19T05:07:40;6.88;;;4.30;;
35126;SDS011;21300;52.006;5.798;2023-06-19T05:10:05;5.80;;;4.45;;
35126;SDS011;21300;52.006;5.798;2023-06-19T05:12:33;9.20;;;4.97;;
35126;SDS011;21300;52.006;5.798;2023-06-19T05:14:59;5.90;;;4.47;;
35126;SDS011;21300;52.006;5.798;2023-06-19T05:17:25;6.68;;;4.57;;
35126;SDS011;21300;52.006;5.798;2023-06-19T05:19:51;8.70;;;4.93;;
35126;SDS011;21300;52.006;5.798;2023-06-19T05:22:16;6.72;;;4.50;;
35126;SDS011;21300;52.006;5.798;2023-06-19T05:24:43;7.53;;;4.30;;
35126;SDS011;21300;52.006;5.798;2023-06-19T05:27:09;5.93;;;4.75;;
35126;SDS011;21300;52.006;5.798;2023-06-19T05:29:35;6.00;;;4.60;;
35126;SDS011;21300;52.006;5.798;2023-06-19T05:32:01;8.63;;;4.80;;
35126;SDS011;21300;52.006;5.798;2023-06-19T05:34:27;9.25;;;4.60;;
35126;SDS011;21300;52.006;5.798;2023-06-19T05:36:52;6.05;;;4.57;;
35126;SDS011;21300;52.006;5.798;2023-06-19T05:39:18;7.72;;;4.47;;
35126;SDS011;21300;52.006;5.798;2023-06-19T05:41:44;7.28;;;4.82;;
35126;SDS011;21300;52.006;5.798;2023-06-19T05:44:10;10.18;;;5.30;;
35126;SDS011;21300;52.006;5.798;2023-06-19T05:46:40;6.85;;;5.82;;
35126;SDS011;21300;52.006;5.798;2023-06-19T05:49:05;5.60;;;4.75;;
35126;SDS011;21300;52.006;5.798;2023-06-19T05:51:31;6.22;;;4.80;;
35126;SDS011;21300;52.006;5.798;2023-06-19T05:53:56;7.18;;;5.45;;
35126;SDS011;21300;52.006;5.798;2023-06-19T05:56:28;8.10;;;5.45;;
35126;SDS011;21300;52.006;5.798;2023-06-19T05:58:58;7.32;;;5.90;;
35126;SDS011;21300;52.006;5.798;2023-06-19T06:01:25;8.23;;;5.95;;
35126;SDS011;21300;52.006;5.798;2023-06-19T06:03:53;9.27;;;6.38;;
35126;SDS011;21300;52.006;5.798;2023-06-19T06:06:19;7.38;;;6.13;;
35126;SDS011;21300;52.006;5.798;2023-06-19T06:08:45;7.43;;;6.18;;
35126;SDS011;21300;52.006;5.798;2023-06-19T06:11:10;7.97;;;6.63;;
35126;SDS011;21300;52.006;5.798;2023-06-19T06:13:36;9.57;;;7.07;;
35126;SDS011;21300;52.006;5.798;2023-06-19T06:16:02;8.02;;;5.32;;
35126;SDS011;21300;52.006;5.798;2023-06-19T06:18:27;11.75;;;6.85;;
35126;SDS011;21300;52.006;5.798;2023-06-19T06:20:53;9.70;;;7.18;;
35126;SDS011;21300;52.006;5.798;2023-06-19T06:23:18;10.20;;;7.00;;
35126;SDS011;21300;52.006;5.798;2023-06-19T06:25:44;8.40;;;6.30;;
35126;SDS011;21300;52.006;5.798;2023-06-19T06:28:11;8.57;;;5.93;;
35126;SDS011;21300;52.006;5.798;2023-06-19T06:30:36;8.73;;;6.50;;
35126;SDS011;21300;52.006;5.798;2023-06-19T06:33:03;7.90;;;6.30;;
35126;SDS011;21300;52.006;5.798;2023-06-19T06:35:29;6.93;;;5.88;;
35126;SDS011;21300;52.006;5.798;2023-06-19T06:37:55;6.47;;;5.43;;
35126;SDS011;21300;52.006;5.798;2023-06-19T06:40:20;7.82;;;5.40;;
35126;SDS011;21300;52.006;5.798;2023-06-19T06:42:46;7.35;;;5.68;;
35126;SDS011;21300;52.006;5.798;2023-06-19T06:45:12;6.20;;;4.95;;
35126;SDS011;21300;52.006;5.798;2023-06-19T06:47:38;6.80;;;5.63;;
35126;SDS011;21300;52.006;5.798;2023-06-19T06:50:05;6.85;;;4.88;;
35126;SDS011;21300;52.006;5.798;2023-06-19T06:52:31;7.22;;;5.20;;
35126;SDS011;21300;52.006;5.798;2023-06-19T06:54:57;6.13;;;4.47;;
35126;SDS011;21300;52.006;5.798;2023-06-19T06:57:23;6.55;;;4.80;;
35126;SDS011;21300;52.006;5.798;2023-06-19T06:59:48;6.68;;;4.70;;
35126;SDS011;21300;52.006;5.798;2023-06-19T07:02:14;5.75;;;4.50;;
35126;SDS011;21300;52.006;5.798;2023-06-19T07:04:39;5.18;;;4.68;;
35126;SDS011;21300;52.006;5.798;2023-06-19T07:07:05;5.53;;;4.68;;
35126;SDS011;21300;52.006;5.798;2023-06-19T07:09:32;5.13;;;3.95;;
35126;SDS011;21300;52.006;5.798;2023-06-19T07:11:58;4.82;;;4.00;;
35126;SDS011;21300;52.006;5.798;2023-06-19T07:14:24;4.88;;;4.38;;
35126;SDS011;21300;52.006;5.798;2023-06-19T07:16:49;5.25;;;4.45;;
35126;SDS011;21300;52.006;5.798;2023-06-19T07:19:15;6.28;;;4.68;;
35126;SDS011;21300;52.006;5.798;2023-06-19T07:21:41;5.10;;;4.63;;
35126;SDS011;21300;52.006;5.798;2023-06-19T07:24:07;6.20;;;4.80;;
35126;SDS011;21300;52.006;5.798;2023-06-19T07:26:33;4.97;;;4.47;;
35126;SDS011;21300;52.006;5.798;2023-06-19T07:28:59;5.03;;;4.53;;
35126;SDS011;21300;52.006;5.798;2023-06-19T07:31:24;6.57;;;5.60;;
35126;SDS011;21300;52.006;5.798;2023-06-19T07:33:50;5.97;;;5.20;;
35126;SDS011;21300;52.006;5.798;2023-06-19T07:36:15;8.77;;;6.28;;
35126;SDS011;21300;52.006;5.798;2023-06-19T07:38:42;7.68;;;6.88;;
35126;SDS011;21300;52.006;5.798;2023-06-19T07:41:08;10.43;;;8.32;;
35126;SDS011;21300;52.006;5.798;2023-06-19T07:43:35;9.82;;;8.80;;
35126;SDS011;21300;52.006;5.798;2023-06-19T07:46:01;11.57;;;9.60;;
35126;SDS011;21300;52.006;5.798;2023-06-19T07:48:27;9.38;;;8.48;;
35126;SDS011;21300;52.006;5.798;2023-06-19T07:50:53;9.98;;;8.77;;
35126;SDS011;21300;52.006;5.798;2023-06-19T07:53:18;10.23;;;8.63;;
35126;SDS011;21300;52.006;5.798;2023-06-19T07:55:44;11.65;;;9.55;;
35126;SDS011;21300;52.006;5.798;2023-06-19T07:58:10;11.65;;;9.90;;
35126;SDS011;21300;52.006;5.798;2023-06-19T08:00:35;12.20;;;10.32;;
35126;SDS011;21300;52.006;5.798;2023-06-19T08:03:01;13.18;;;9.32;;
35126;SDS011;21300;52.006;5.798;2023-06-19T08:05:27;10.60;;;9.52;;
35126;SDS011;21300;52.006;5.798;2023-06-19T08:07:52;14.05;;;10.18;;
35126;SDS011;21300;52.006;5.798;2023-06-19T08:10:18;11.93;;;10.00;;
35126;SDS011;21300;52.006;5.798;2023-06-19T08:12:44;10.60;;;9.45;;
35126;SDS011;21300;52.006;5.798;2023-06-19T08:15:10;14.40;;;10.93;;
35126;SDS011;21300;52.006;5.798;2023-06-19T08:17:36;14.20;;;11.35;;
35126;SDS011;21300;52.006;5.798;2023-06-19T08:20:02;12.77;;;10.88;;
35126;SDS011;21300;52.006;5.798;2023-06-19T08:22:30;12.85;;;11.27;;
35126;SDS011;21300;52.006;5.798;2023-06-19T08:24:56;13.70;;;11.73;;
35126;SDS011;21300;52.006;5.798;2023-06-19T08:27:21;12.85;;;10.82;;
35126;SDS011;21300;52.006;5.798;2023-06-19T08:29:47;11.75;;;10.45;;
35126;SDS011;21300;52.006;5.798;2023-06-19T08:32:12;14.65;;;10.80;;
35126;SDS011;21300;52.006;5.798;2023-06-19T08:34:38;13.52;;;11.23;;
35126;SDS011;21300;52.006;5.798;2023-06-19T08:37:05;14.73;;;11.90;;
35126;SDS011;21300;52.006;5.798;2023-06-19T08:39:30;13.68;;;10.68;;
35126;SDS011;21300;52.006;5.798;2023-06-19T08:41:56;11.45;;;10.02;;
35126;SDS011;21300;52.006;5.798;2023-06-19T08:44:22;15.57;;;10.20;;
35126;SDS011;21300;52.006;5.798;2023-06-19T08:46:47;12.90;;;9.82;;
35126;SDS011;21300;52.006;5.798;2023-06-19T08:49:13;13.55;;;11.18;;
35126;SDS011;21300;52.006;5.798;2023-06-19T08:51:39;13.38;;;11.20;;
35126;SDS011;21300;52.006;5.798;2023-06-19T08:54:05;18.08;;;12.38;;
35126;SDS011;21300;52.006;5.798;2023-06-19T08:56:35;10.98;;;9.77;;
35126;SDS011;21300;52.006;5.798;2023-06-19T08:59:13;13.75;;;11.02;;
35126;SDS011;21300;52.006;5.798;2023-06-19T09:01:46;13.10;;;11.48;;
35126;SDS011;21300;52.006;5.798;2023-06-19T09:04:19;13.25;;;11.43;;
35126;SDS011;21300;52.006;5.798;2023-06-19T09:09:13;14.05;;;12.25;;
35126;SDS011;21300;52.006;5.798;2023-06-19T09:11:40;15.00;;;12.23;;
35126;SDS011;21300;52.006;5.798;2023-06-19T09:14:08;13.27;;;11.93;;
35126;SDS011;21300;52.006;5.798;2023-06-19T09:16:39;13.70;;;11.98;;
35126;SDS011;21300;52.006;5.798;2023-06-19T09:19:05;13.95;;;11.45;;
35126;SDS011;21300;52.006;5.798;2023-06-19T09:21:32;14.65;;;13.10;;
35126;SDS011;21300;52.006;5.798;2023-06-19T09:24:06;13.82;;;12.43;;
35126;SDS011;21300;52.006;5.798;2023-06-19T09:26:33;16.60;;;14.45;;
35126;SDS011;21300;52.006;5.798;2023-06-19T09:29:15;15.88;;;13.23;;
35126;SDS011;21300;52.006;5.798;2023-06-19T09:31:44;16.00;;;11.70;;
35126;SDS011;21300;52.006;5.798;2023-06-19T09:34:10;16.58;;;14.00;;
35126;SDS011;21300;52.006;5.798;2023-06-19T09:36:35;15.70;;;12.90;;
35126;SDS011;21300;52.006;5.798;2023-06-19T09:39:04;20.27;;;14.02;;
35126;SDS011;21300;52.006;5.798;2023-06-19T09:41:30;17.73;;;13.38;;
35126;SDS011;21300;52.006;5.798;2023-06-19T09:43:56;17.33;;;12.68;;
35126;SDS011;21300;52.006;5.798;2023-06-19T09:46:30;14.43;;;12.88;;
35126;SDS011;21300;52.006;5.798;2023-06-19T09:49:01;14.13;;;12.68;;
35126;SDS011;21300;52.006;5.798;2023-06-19T09:51:33;14.18;;;12.68;;
35126;SDS011;21300;52.006;5.798;2023-06-19T09:54:03;14.98;;;12.82;;
35126;SDS011;21300;52.006;5.798;2023-06-19T09:56:31;16.73;;;14.80;;
35126;SDS011;21300;52.006;5.798;2023-06-19T09:58:59;14.80;;;12.77;;
35126;SDS011;21300;52.006;5.798;2023-06-19T10:01:26;18.10;;;14.68;;
35126;SDS011;21300;52.006;5.798;2023-06-19T10:04:01;15.27;;;12.93;;
35126;SDS011;21300;52.006;5.798;2023-06-19T10:06:42;17.55;;;13.15;;
35126;SDS011;21300;52.006;5.798;2023-06-19T10:09:13;17.23;;;12.82;;
35126;SDS011;21300;52.006;5.798;2023-06-19T10:11:49;16.48;;;13.93;;
35126;SDS011;21300;52.006;5.798;2023-06-19T10:14:16;15.68;;;13.05;;
35126;SDS011;21300;52.006;5.798;2023-06-19T10:16:43;16.00;;;14.30;;
35126;SDS011;21300;52.006;5.798;2023-06-19T10:19:16;16.70;;;14.65;;
35126;SDS011;21300;52.006;5.798;2023-06-19T10:24:16;17.95;;;12.40;;
35126;SDS011;21300;52.006;5.798;2023-06-19T10:26:54;16.88;;;11.98;;
35126;SDS011;21300;52.006;5.798;2023-06-19T10:29:22;14.70;;;13.18;;
35126;SDS011;21300;52.006;5.798;2023-06-19T10:31:47;17.42;;;13.65;;
35126;SDS011;21300;52.006;5.798;2023-06-19T10:34:13;15.45;;;12.88;;
35126;SDS011;21300;52.006;5.798;2023-06-19T10:36:39;16.13;;;13.98;;
35126;SDS011;21300;52.006;5.798;2023-06-19T10:39:23;16.02;;;13.57;;
35126;SDS011;21300;52.006;5.798;2023-06-19T10:41:48;15.63;;;13.00;;
35126;SDS011;21300;52.006;5.798;2023-06-19T10:44:14;18.70;;;14.52;;
35126;SDS011;21300;52.006;5.798;2023-06-19T10:46:39;17.77;;;15.02;;
35126;SDS011;21300;52.006;5.798;2023-06-19T10:49:06;13.98;;;12.57;;
35126;SDS011;21300;52.006;5.798;2023-06-19T10:51:35;15.48;;;12.38;;
35126;SDS011;21300;52.006;5.798;2023-06-19T10:54:02;17.92;;;13.45;;
35126;SDS011;21300;52.006;5.798;2023-06-19T10:56:28;18.67;;;12.60;;
35126;SDS011;21300;52.006;5.798;2023-06-19T10:58:58;19.65;;;15.23;;
35126;SDS011;21300;52.006;5.798;2023-06-19T11:01:38;17.65;;;15.05;;
35126;SDS011;21300;52.006;5.798;2023-06-19T11:04:08;16.50;;;14.55;;
35126;SDS011;21300;52.006;5.798;2023-06-19T11:06:36;15.48;;;13.52;;
35126;SDS011;21300;52.006;5.798;2023-06-19T11:09:03;16.38;;;14.38;;
35126;SDS011;21300;52.006;5.798;2023-06-19T11:16:30;16.75;;;13.40;;
35126;SDS011;21300;52.006;5.798;2023-06-19T11:18:57;18.55;;;13.90;;
35126;SDS011;21300;52.006;5.798;2023-06-19T11:21:32;18.17;;;15.02;;
35126;SDS011;21300;52.006;5.798;2023-06-19T11:24:00;18.58;;;13.25;;
35126;SDS011;21300;52.006;5.798;2023-06-19T11:26:26;30.88;;;14.57;;
35126;SDS011;21300;52.006;5.798;2023-06-19T11:28:52;18.83;;;14.77;;
35126;SDS011;21300;52.006;5.798;2023-06-19T11:31:24;22.42;;;16.73;;
35126;SDS011;21300;52.006;5.798;2023-06-19T11:33:58;15.07;;;13.00;;
35126;SDS011;21300;52.006;5.798;2023-06-19T11:36:26;16.67;;;12.90;;
35126;SDS011;21300;52.006;5.798;2023-06-19T11:38:52;15.65;;;13.45;;
35126;SDS011;21300;52.006;5.798;2023-06-19T11:41:28;15.45;;;12.73;;
35126;SDS011;21300;52.006;5.798;2023-06-19T11:44:03;18.45;;;15.13;;
35126;SDS011;21300;52.006;5.798;2023-06-19T11:46:31;16.77;;;12.20;;
35126;SDS011;21300;52.006;5.798;2023-06-19T11:49:08;16.63;;;12.70;;
35126;SDS011;21300;52.006;5.798;2023-06-19T11:51:34;17.63;;;14.43;;
35126;SDS011;21300;52.006;5.798;2023-06-19T11:54:00;15.35;;;12.52;;
35126;SDS011;21300;52.006;5.798;2023-06-19T11:56:26;16.45;;;13.85;;
35126;SDS011;21300;52.006;5.798;2023-06-19T11:58:51;14.82;;;12.27;;
35126;SDS011;21300;52.006;5.798;2023-06-19T12:01:17;16.98;;;13.27;;
35126;SDS011;21300;52.006;5.798;2023-06-19T12:03:43;14.85;;;12.20;;
35126;SDS011;21300;52.006;5.798;2023-06-19T12:06:08;14.43;;;12.07;;
35126;SDS011;21300;52.006;5.798;2023-06-19T12:08:34;11.90;;;10.55;;
35126;SDS011;21300;52.006;5.798;2023-06-19T12:11:02;14.80;;;12.13;;
35126;SDS011;21300;52.006;5.798;2023-06-19T12:13:28;14.77;;;9.43;;
35126;SDS011;21300;52.006;5.798;2023-06-19T12:15:53;11.98;;;8.88;;
35126;SDS011;21300;52.006;5.798;2023-06-19T12:18:19;13.00;;;9.57;;
35126;SDS011;21300;52.006;5.798;2023-06-19T12:20:44;12.43;;;10.02;;
35126;SDS011;21300;52.006;5.798;2023-06-19T12:23:10;12.60;;;9.30;;
35126;SDS011;21300;52.006;5.798;2023-06-19T12:25:36;15.68;;;9.77;;
35126;SDS011;21300;52.006;5.798;2023-06-19T12:28:01;13.57;;;10.27;;
35126;SDS011;21300;52.006;5.798;2023-06-19T12:30:32;11.90;;;8.95;;
35126;SDS011;21300;52.006;5.798;2023-06-19T12:32:59;11.15;;;7.75;;
35126;SDS011;21300;52.006;5.798;2023-06-19T12:35:24;11.82;;;9.00;;
35126;SDS011;21300;52.006;5.798;2023-06-19T12:37:51;13.75;;;10.48;;
35126;SDS011;21300;52.006;5.798;2023-06-19T12:40:17;10.07;;;8.88;;
35126;SDS011;21300;52.006;5.798;2023-06-19T12:42:43;13.18;;;9.85;;
35126;SDS011;21300;52.006;5.798;2023-06-19T12:45:09;14.10;;;8.65;;
35126;SDS011;21300;52.006;5.798;2023-06-19T12:47:35;14.70;;;8.68;;
35126;SDS011;21300;52.006;5.798;2023-06-19T12:50:01;10.75;;;8.77;;
35126;SDS011;21300;52.006;5.798;2023-06-19T12:52:27;9.32;;;7.72;;
35126;SDS011;21300;52.006;5.798;2023-06-19T12:54:53;12.07;;;8.93;;
35126;SDS011;21300;52.006;5.798;2023-06-19T12:57:18;11.18;;;8.43;;
35126;SDS011;21300;52.006;5.798;2023-06-19T12:59:44;10.05;;;8.75;;
35126;SDS011;21300;52.006;5.798;2023-06-19T13:02:09;14.52;;;8.82;;
35126;SDS011;21300;52.006;5.798;2023-06-19T13:04:35;12.25;;;9.25;;
35126;SDS011;21300;52.006;5.798;2023-06-19T13:07:01;11.52;;;8.82;;
35126;SDS011;21300;52.006;5.798;2023-06-19T13:09:26;11.50;;;8.05;;
35126;SDS011;21300;52.006;5.798;2023-06-19T13:11:52;12.40;;;9.13;;
35126;SDS011;21300;52.006;5.798;2023-06-19T13:14:17;10.35;;;8.35;;
35126;SDS011;21300;52.006;5.798;2023-06-19T13:16:43;12.98;;;8.82;;
35126;SDS011;21300;52.006;5.798;2023-06-19T13:19:09;11.48;;;6.80;;
35126;SDS011;21300;52.006;5.798;2023-06-19T13:21:34;14.43;;;8.95;;
35126;SDS011;21300;52.006;5.798;2023-06-19T13:24:00;10.15;;;8.20;;
35126;SDS011;21300;52.006;5.798;2023-06-19T13:26:26;8.93;;;6.60;;
35126;SDS011;21300;52.006;5.798;2023-06-19T13:28:52;8.88;;;6.65;;
35126;SDS011;21300;52.006;5.798;2023-06-19T13:31:17;9.38;;;6.72;;
35126;SDS011;21300;52.006;5.798;2023-06-19T13:33:43;7.88;;;6.68;;
35126;SDS011;21300;52.006;5.798;2023-06-19T13:36:09;10.73;;;6.50;;
35126;SDS011;21300;52.006;5.798;2023-06-19T13:38:34;8.40;;;6.18;;
35126;SDS011;21300;52.006;5.798;2023-06-19T13:41:00;10.65;;;6.72;;
35126;SDS011;21300;52.006;5.798;2023-06-19T13:43:25;8.85;;;7.00;;
35126;SDS011;21300;52.006;5.798;2023-06-19T13:45:51;8.27;;;7.18;;
35126;SDS011;21300;52.006;5.798;2023-06-19T13:48:17;9.43;;;7.25;;
35126;SDS011;21300;52.006;5.798;2023-06-19T13:50:42;12.43;;;7.20;;
35126;SDS011;21300;52.006;5.798;2023-06-19T13:53:08;8.30;;;7.28;;
35126;SDS011;21300;52.006;5.798;2023-06-19T13:55:33;10.93;;;7.63;;
35126;SDS011;21300;52.006;5.798;2023-06-19T13:57:59;9.52;;;6.40;;
35126;SDS011;21300;52.006;5.798;2023-06-19T14:00:25;8.80;;;7.20;;
35126;SDS011;21300;52.006;5.798;2023-06-19T14:02:50;11.63;;;7.40;;
35126;SDS011;21300;52.006;5.798;2023-06-19T14:05:16;10.27;;;7.47;;
35126;SDS011;21300;52.006;5.798;2023-06-19T14:07:42;10.75;;;7.55;;
35126;SDS011;21300;52.006;5.798;2023-06-19T14:10:08;8.85;;;7.47;;
35126;SDS011;21300;52.006;5.798;2023-06-19T14:12:33;12.38;;;9.02;;
35126;SDS011;21300;52.006;5.798;2023-06-19T14:14:59;7.68;;;6.88;;
35126;SDS011;21300;52.006;5.798;2023-06-19T14:17:25;9.82;;;8.10;;
35126;SDS011;21300;52.006;5.798;2023-06-19T14:19:51;11.18;;;8.40;;
35126;SDS011;21300;52.006;5.798;2023-06-19T14:22:16;15.88;;;9.23;;
35126;SDS011;21300;52.006;5.798;2023-06-19T14:24:42;10.95;;;8.45;;
35126;SDS011;21300;52.006;5.798;2023-06-19T14:27:08;13.00;;;7.85;;
35126;SDS011;21300;52.006;5.798;2023-06-19T14:29:34;11.95;;;8.32;;
35126;SDS011;21300;52.006;5.798;2023-06-19T14:31:59;8.77;;;7.13;;
35126;SDS011;21300;52.006;5.798;2023-06-19T14:34:25;10.90;;;7.38;;
35126;SDS011;21300;52.006;5.798;2023-06-19T14:36:51;15.15;;;7.25;;
35126;SDS011;21300;52.006;5.798;2023-06-19T14:39:16;10.95;;;8.20;;
35126;SDS011;21300;52.006;5.798;2023-06-19T14:41:42;11.48;;;8.60;;
35126;SDS011;21300;52.006;5.798;2023-06-19T14:44:08;12.23;;;9.20;;
35126;SDS011;21300;52.006;5.798;2023-06-19T14:46:33;12.02;;;9.90;;
35126;SDS011;21300;52.006;5.798;2023-06-19T14:49:04;10.80;;;8.65;;